Latest Weather Observations for Flinders Island Airport

IDT60801

Issued at 12:31 am EST Sunday 31 May 2015 (issued every 30 minutes, with the page automatically refreshed every 10 minutes)

About weather observations | Map of weather stations | Latest weather observations for TAS | Other Formats
Station Details ID: 099005 Name: FLINDERS ISLAND AIRPORT Lat: -40.09 Lon: 148.00 Height: 9.0 m
Data from the previous 72 hours. | See also: Recent months at Flinders Island Airport
Date/Time
EST
Temp
°C
App
Temp
°C
Dew
Point
Rel
Hum
%
Delta-T
°C
Wind Press
QNH
hPa
Press
MSL
hPa
Rain
since 9 am
mm
Dir
 
Spd
km/h
Gust
km/h
Spd
kts
Gust
kts
31/12:30am 12.2 4.6 10.6 90 0.8 WNW 41 56 22 30 1008.6 1008.6 3.0
31/12:28am 12.1 4.2 10.7 91 0.7 WNW 43 61 23 33 1008.7 1008.7 3.0
31/12:11am 12.0 3.5 10.7 92 0.7 WNW 46 61 25 33 1009.0 1009.0 3.0
31/12:00am 11.7 2.8 10.6 93 0.6 WNW 48 70 26 38 1009.1 1009.1 2.8
 
Date/Time
EST
Temp
°C
App
Temp
°C
Dew
Point
Rel
Hum
%
Delta-T
°C
Wind Press
QNH
hPa
Press
MSL
hPa
Rain
since 9 am
mm
Dir
 
Spd
km/h
Gust
km/h
Spd
kts
Gust
kts
30/11:52pm 12.2 4.3 10.9 92 0.7 WNW 43 70 23 38 1009.0 1009.0 2.6
30/11:48pm 12.4 4.9 10.8 90 0.8 WNW 41 56 22 30 1008.9 1008.9 1.8
30/11:34pm 12.4 5.2 10.6 89 0.9 WNW 39 57 21 31 1009.0 1009.0 1.4
30/11:30pm 12.5 4.9 10.6 88 1.0 WNW 41 57 22 31 1009.0 1009.0 1.4
30/11:22pm 12.3 5.1 10.4 88 1.0 WNW 39 54 21 29 1009.1 1009.1 1.4
30/11:05pm 12.3 2.8 9.9 85 1.2 WNW 50 69 27 37 1009.3 1009.3 1.4
30/11:00pm 13.5 4.4 9.9 79 1.9 WNW 48 69 26 37 1009.1 1009.1 1.2
30/10:52pm 13.2 5.0 9.8 80 1.7 W 43 61 23 33 1009.2 1009.2 1.2
30/10:30pm 12.9 5.0 10.8 87 1.1 WNW 43 59 23 32 1009.1 1009.1 1.0
30/10:01pm 13.4 5.3 10.2 81 1.7 W 43 65 23 35 1009.6 1009.6 1.0
30/10:00pm 13.4 5.7 10.2 81 1.7 W 41 54 22 29 1009.6 1009.6 1.0
30/09:44pm 13.0 5.8 10.7 86 1.2 WNW 39 61 21 33 1009.6 1009.6 1.0
30/09:30pm 12.8 4.8 10.5 86 1.2 W 43 57 23 31 1009.6 1009.6 0.8
30/09:16pm 13.1 3.2 9.9 81 1.6 W 52 72 28 39 1009.5 1009.5 0.8
30/09:00pm 13.5 4.3 9.6 77 2.0 WNW 48 61 26 33 1009.5 1009.5 0.8
30/08:30pm 13.3 4.2 9.9 80 1.7 WNW 48 72 26 39 1009.5 1009.5 0.8
30/08:29pm 13.3 4.2 9.9 80 1.7 WNW 48 72 26 39 1009.5 1009.5 0.8
30/08:17pm 12.8 4.3 10.5 86 1.2 WNW 46 61 25 33 1009.5 1009.5 0.8
30/08:05pm 12.6 3.8 10.8 89 0.9 WNW 48 65 26 35 1009.6 1009.6 0.8
30/08:00pm 13.2 4.7 10.7 85 1.3 WNW 46 65 25 35 1009.6 1009.6 0.8
30/07:32pm 13.4 5.3 10.0 80 1.8 WNW 43 61 23 33 1009.5 1009.5 0.6
30/07:30pm 13.4 5.1 10.0 80 1.8 WNW 44 61 24 33 1009.5 1009.5 0.6
30/07:17pm 13.3 5.1 10.5 83 1.5 WNW 44 65 24 35 1009.4 1009.4 0.6
30/07:11pm 13.3 5.2 10.7 84 1.4 WNW 44 65 24 35 1009.3 1009.3 0.6
30/07:02pm 13.5 5.0 10.7 83 1.5 WNW 46 61 25 33 1009.3 1009.3 0.6
30/07:00pm 13.4 4.9 10.6 83 1.5 WNW 46 61 25 33 1009.3 1009.3 0.6
30/06:30pm 13.1 4.6 10.6 85 1.3 WNW 46 69 25 37 1009.3 1009.3 0.6
30/06:13pm 12.6 3.1 11.0 90 0.8 WNW 52 76 28 41 1009.5 1009.5 0.6
30/06:00pm 12.4 4.5 11.3 93 0.6 WNW 44 63 24 34 1009.4 1009.4 0.6
30/05:51pm 12.5 3.4 11.1 91 0.7 WNW 50 70 27 38 1009.5 1009.5 0.2
30/05:42pm 13.3 3.9 10.3 82 1.6 WNW 50 69 27 37 1009.4 1009.4 0.2
30/05:30pm 13.1 5.0 10.6 85 1.3 WNW 44 61 24 33 1009.3 1009.3 0.2
30/05:05pm 13.5 4.0 9.7 78 1.9 WNW 50 72 27 39 1009.2 1009.2 0.2
30/05:00pm 13.5 3.7 10.1 80 1.8 WNW 52 69 28 37 1009.3 1009.3 0.2
30/04:36pm 13.5 3.3 10.1 80 1.8 WNW 54 80 29 43 1009.1 1009.1 0.2
30/04:30pm 13.5 4.1 10.1 80 1.8 WNW 50 65 27 35 1009.2 1009.2 0.2
30/04:21pm 13.4 4.4 10.2 81 1.7 WNW 48 69 26 37 1009.2 1009.2 0.0
30/04:08pm 13.1 4.2 10.5 84 1.4 WNW 48 72 26 39 1009.3 1009.3 0.0
30/04:00pm 13.5 4.4 9.9 79 1.9 WNW 48 67 26 36 1009.3 1009.3 0.0
30/03:36pm 12.7 3.8 10.6 87 1.1 WNW 48 67 26 36 1009.9 1009.9 0.0
30/03:30pm 12.8 3.6 11.0 89 0.9 WNW 50 72 27 39 1010.0 1010.0 0.0
30/03:29pm 12.7 3.5 10.9 89 0.9 WNW 50 72 27 39 1009.9 1009.9 0.0
30/03:08pm 12.4 2.7 10.5 88 1.0 WNW 52 70 28 38 1010.0 1010.0 0.0
30/03:07pm 12.4 2.3 10.5 88 1.0 WNW 54 70 29 38 1010.0 1010.0 0.0
30/03:02pm 12.4 2.6 10.1 86 1.2 WNW 52 72 28 39 1010.0 1010.0 0.0
30/03:00pm 12.6 2.3 9.8 83 1.4 WNW 54 72 29 39 1010.0 1010.0 0.0
30/02:30pm 14.1 3.6 8.9 71 2.6 WNW 54 78 29 42 1009.8 1009.8 0.0
30/02:03pm 14.1 4.0 9.1 72 2.5 WNW 52 70 28 38 1010.0 1010.0 0.0
30/02:00pm 13.9 3.4 8.9 72 2.5 WNW 54 70 29 38 1010.1 1010.1 0.0
30/01:39pm 13.9 4.2 8.9 72 2.5 WNW 50 70 27 38 1010.4 1010.4 0.0
30/01:30pm 13.8 4.1 9.0 73 2.4 WNW 50 63 27 34 1010.5 1010.5 0.0
30/01:00pm 14.3 4.3 9.3 72 2.6 WNW 52 72 28 39 1010.6 1010.6 0.0
30/12:34pm 13.9 5.4 9.1 73 2.4 WNW 44 65 24 35 1011.2 1011.2 0.0
30/12:30pm 14.0 5.5 9.2 73 2.4 WNW 44 59 24 32 1011.2 1011.2 0.0
30/12:00pm 14.5 4.5 9.3 71 2.7 WNW 52 70 28 38 1011.7 1011.7 0.0
30/11:38am 13.8 4.5 9.0 73 2.4 WNW 48 69 26 37 1012.2 1012.2 0.0
30/11:30am 13.7 4.0 9.2 74 2.3 WNW 50 65 27 35 1012.5 1012.5 0.0
30/11:00am 13.8 4.8 9.0 73 2.4 WNW 46 70 25 38 1013.1 1013.1 0.0
30/10:30am 13.7 4.7 8.7 72 2.5 WNW 46 70 25 38 1013.7 1013.7 0.0
30/10:00am 13.1 4.6 9.2 77 2.0 WNW 44 63 24 34 1014.2 1014.1 0.0
30/09:31am 13.4 5.3 8.7 73 2.4 NW 41 59 22 32 1014.2 1014.2 0.0
30/09:30am 13.4 5.0 8.9 74 2.3 NW 43 59 23 32 1014.1 1014.1 0.0
30/09:13am 13.3 5.2 8.8 74 2.3 NW 41 59 22 32 1014.3 1014.3 0.0
30/09:00am 13.4 4.8 8.3 71 2.5 WNW 43 59 23 32 1014.4 1014.4 1.4
30/08:30am 13.0 5.7 8.7 75 2.2 WNW 37 56 20 30 1014.7 1014.7 1.4
30/08:17am 13.1 5.8 8.6 74 2.2 NW 37 56 20 30 1014.8 1014.8 1.4
30/08:00am 13.2 5.8 8.3 72 2.4 NW 37 54 20 29 1014.7 1014.7 1.4
30/07:30am 13.0 5.3 8.5 74 2.2 WNW 39 52 21 28 1014.9 1014.9 1.4
30/07:00am 13.0 6.1 8.7 75 2.2 WNW 35 48 19 26 1015.0 1015.0 1.4
30/06:30am 12.9 5.5 8.2 73 2.3 WNW 37 52 20 28 1015.1 1015.1 1.4
30/05:30am 12.3 5.5 9.3 82 1.5 WNW 35 46 19 25 1015.3 1015.3 1.2
30/05:00am 12.0 5.9 9.7 86 1.2 WNW 32 48 17 26 1015.4 1015.4 1.2
30/04:30am 11.8 7.0 10.2 90 0.8 WNW 26 35 14 19 1015.6 1015.6 1.2
30/04:24am 11.5 6.6 9.9 90 0.8 WNW 26 33 14 18 1015.7 1015.7 1.2
30/04:06am 11.5 4.8 9.8 89 0.9 W 35 46 19 25 1015.8 1015.8 1.0
30/04:00am 12.7 6.5 9.3 80 1.7 WNW 32 41 17 22 1015.8 1015.8 0.6
30/03:30am 12.8 6.9 9.1 78 1.9 WNW 30 43 16 23 1016.1 1016.1 0.4
30/03:00am 12.7 5.7 8.6 76 2.0 WNW 35 46 19 25 1016.4 1016.4 0.4
30/02:30am 12.8 5.8 8.3 74 2.2 WNW 35 52 19 28 1016.8 1016.8 0.4
30/02:06am 12.1 5.6 8.9 81 1.6 WNW 33 52 18 28 1017.1 1017.1 0.4
30/02:00am 12.2 4.9 8.9 80 1.6 WNW 37 52 20 28 1017.2 1017.2 0.4
30/01:30am 12.5 6.0 8.8 78 1.8 WNW 33 44 18 24 1017.3 1017.3 0.4
30/01:00am 11.9 5.4 9.1 83 1.4 WNW 33 48 18 26 1017.5 1017.5 0.4
30/12:30am 11.8 5.3 9.0 83 1.4 WNW 33 46 18 25 1018.0 1017.9 0.4
30/12:00am 11.3 5.6 9.9 91 0.7 W 30 37 16 20 1018.2 1018.1 0.4
 
Date/Time
EST
Temp
°C
App
Temp
°C
Dew
Point
Rel
Hum
%
Delta-T
°C
Wind Press
QNH
hPa
Press
MSL
hPa
Rain
since 9 am
mm
Dir
 
Spd
km/h
Gust
km/h
Spd
kts
Gust
kts
29/11:36pm 12.2 5.7 9.0 81 1.6 WNW 33 52 18 28 1018.4 1018.3 0.2
29/11:30pm 12.5 6.5 8.8 78 1.8 WNW 30 43 16 23 1018.3 1018.2 0.2
29/11:00pm 12.3 5.8 8.0 75 2.1 WNW 32 41 17 22 1018.4 1018.3 0.2
29/10:30pm 12.6 6.9 8.3 75 2.1 WNW 28 39 15 21 1018.4 1018.3 0.2
29/10:00pm 12.2 5.7 8.9 80 1.6 WNW 33 41 18 22 1018.7 1018.6 0.2
29/09:30pm 12.1 6.2 9.1 82 1.5 WNW 30 39 16 21 1018.9 1018.9 0.2
29/09:00pm 12.5 6.3 9.5 82 1.5 WNW 32 43 17 23 1018.7 1018.6 0.2
29/08:30pm 11.7 5.3 9.4 86 1.2 WNW 33 44 18 24 1018.8 1018.8 0.2
29/08:15pm 12.2 6.3 8.9 80 1.6 WNW 30 50 16 27 1018.8 1018.8 0.2
29/08:00pm 11.6 5.7 9.0 84 1.3 WNW 30 41 16 22 1018.7 1018.6 0.2
29/07:36pm 10.9 4.6 9.0 88 0.9 WNW 32 37 17 20 1018.8 1018.8 0.2
29/07:30pm 11.0 4.5 9.1 88 0.9 WNW 33 44 18 24 1018.9 1018.9 0.2
29/07:18pm 11.0 3.4 8.9 87 1.0 W 39 57 21 31 1018.9 1018.9 0.2
29/07:17pm 11.1 3.0 8.8 86 1.1 W 41 57 22 31 1019.0 1019.0 0.0
29/07:06pm 12.0 4.1 7.9 76 2.0 W 39 57 21 31 1018.5 1018.4 0.0
29/07:00pm 12.9 5.6 7.4 69 2.7 W 35 50 19 27 1018.4 1018.3 0.0
29/06:30pm 12.4 5.1 7.1 70 2.6 WNW 35 46 19 25 1018.2 1018.1 0.0
29/06:00pm 11.3 5.3 8.5 83 1.4 WNW 30 41 16 22 1018.1 1018.0 0.0
29/05:47pm 12.0 5.5 8.3 78 1.8 WNW 32 52 17 28 1018.1 1018.0 0.0
29/05:30pm 12.3 5.4 6.6 68 2.7 WNW 32 41 17 22 1017.8 1017.8 0.0
29/05:00pm 12.3 5.4 7.2 71 2.5 WNW 33 41 18 22 1017.5 1017.5 0.0
29/04:30pm 12.4 4.9 6.2 66 2.9 W 35 48 19 26 1017.4 1017.4 0.0
29/04:00pm 13.1 5.3 6.7 65 3.1 WNW 37 50 20 27 1017.2 1017.2 0.0
29/03:30pm 13.0 4.7 6.1 63 3.3 W 39 50 21 27 1017.1 1017.1 0.0
29/03:00pm 13.4 6.1 5.6 59 3.7 W 33 43 18 23 1016.9 1016.9 0.0
29/02:30pm 13.9 5.6 6.3 60 3.6 W 39 48 21 26 1016.7 1016.7 0.0
29/02:00pm 13.3 5.2 5.2 58 3.8 W 37 48 20 26 1016.7 1016.7 0.0
29/01:30pm 14.0 5.7 5.9 58 3.8 W 39 52 21 28 1016.7 1016.7 0.0
29/01:00pm 13.4 5.5 4.6 55 4.0 W 35 46 19 25 1016.8 1016.8 0.0
29/12:30pm 13.6 5.1 5.0 56 4.0 W 39 52 21 28 1016.8 1016.8 0.0
29/12:00pm 13.3 5.3 5.9 61 3.5 W 37 44 20 24 1016.8 1016.8 0.0
29/11:30am 13.5 4.8 6.1 61 3.5 W 41 50 22 27 1017.0 1017.0 0.0
29/11:00am 13.0 4.4 6.4 64 3.1 W 41 50 22 27 1016.8 1016.8 0.0
29/10:30am 13.0 3.3 5.9 62 3.3 W 46 56 25 30 1016.8 1016.8 0.0
29/10:00am 12.5 3.4 6.1 65 3.0 W 43 54 23 29 1016.7 1016.7 0.0
29/09:30am 11.9 4.2 7.0 72 2.3 W 37 48 20 26 1016.7 1016.7 0.0
29/09:00am 10.9 3.6 7.2 78 1.8 W 35 46 19 25 1017.0 1017.0 12.0
29/08:43am 12.1 3.1 6.2 67 2.8 W 43 61 23 33 1016.8 1016.8 11.8
29/08:30am 12.1 3.3 5.5 64 3.1 W 41 57 22 31 1016.7 1016.7 11.8
29/08:00am 10.8 3.3 6.4 74 2.1 W 35 48 19 26 1016.5 1016.5 11.8
29/07:50am 10.3 1.9 5.7 73 2.1 W 39 57 21 31 1016.3 1016.3 11.8
29/07:30am 11.2 2.0 6.3 72 2.3 W 44 54 24 29 1016.1 1016.1 11.8
29/07:16am 10.3 2.7 7.5 83 1.3 W 37 46 20 25 1016.0 1016.0 11.8
29/07:00am 10.0 1.0 7.3 83 1.3 WSW 44 61 24 33 1015.7 1015.7 11.8
29/06:30am 10.1 1.2 7.0 81 1.5 WSW 43 61 23 33 1015.4 1015.4 11.4
29/06:19am 11.7 1.7 6.0 68 2.7 WSW 48 72 26 39 1014.9 1014.9 11.4
29/06:00am 12.4 1.8 4.9 60 3.4 W 50 63 27 34 1014.7 1014.7 11.4
29/05:30am 12.4 3.2 5.3 62 3.3 W 43 54 23 29 1014.2 1014.2 11.4
29/05:00am 12.4 3.3 5.8 64 3.1 W 43 56 23 30 1013.9 1013.9 11.4
29/04:30am 12.3 2.9 5.2 62 3.3 W 44 63 24 34 1013.5 1013.5 11.4
29/04:04am 12.0 3.3 6.1 67 2.8 W 41 59 22 32 1013.3 1013.3 11.4
29/04:00am 12.0 3.8 6.5 69 2.6 W 39 54 21 29 1013.3 1013.3 11.4
29/03:30am 11.5 1.8 7.4 76 2.0 W 48 67 26 36 1013.2 1013.2 11.4
29/03:17am 12.2 3.3 6.7 69 2.6 W 43 61 23 33 1013.1 1013.1 11.4
29/03:00am 12.3 3.2 6.1 66 2.9 W 43 56 23 30 1013.0 1013.0 11.4
29/02:37am 12.8 3.6 7.9 72 2.4 W 46 69 25 37 1012.7 1012.7 11.4
29/02:30am 12.9 4.0 6.7 66 3.0 W 43 54 23 29 1012.8 1012.8 11.4
29/02:00am 13.0 4.4 6.6 65 3.1 W 41 56 22 30 1012.5 1012.5 11.4
29/01:55am 12.8 4.8 7.3 69 2.7 W 39 57 21 31 1012.5 1012.5 11.4
29/01:30am 13.0 5.8 7.5 69 2.7 WNW 35 48 19 26 1012.4 1012.4 11.4
29/01:00am 12.4 6.1 8.9 79 1.8 WNW 32 41 17 22 1012.3 1012.3 11.4
29/12:30am 12.2 5.8 8.5 78 1.8 WNW 32 46 17 25 1012.6 1012.6 11.4
29/12:00am 11.9 5.6 9.1 83 1.4 WNW 32 50 17 27 1012.6 1012.6 11.4
 
Date/Time
EST
Temp
°C
App
Temp
°C
Dew
Point
Rel
Hum
%
Delta-T
°C
Wind Press
QNH
hPa
Press
MSL
hPa
Rain
since 9 am
mm
Dir
 
Spd
km/h
Gust
km/h
Spd
kts
Gust
kts
28/11:37pm 11.9 5.8 9.6 86 1.2 WNW 32 50 17 27 1012.8 1012.8 11.4
28/11:30pm 11.6 5.2 9.5 87 1.1 WNW 33 43 18 23 1012.9 1012.9 11.4
28/11:22pm 11.4 4.2 9.3 87 1.1 W 37 56 20 30 1012.9 1012.9 11.4
28/11:16pm 11.4 3.1 10.0 91 0.7 W 44 57 24 31 1012.9 1012.9 11.4
28/11:09pm 11.6 2.7 10.5 93 0.6 W 48 57 26 31 1012.9 1012.9 11.2
28/11:00pm 11.8 4.6 10.5 92 0.7 W 39 52 21 28 1012.9 1012.9 11.2
28/10:57pm 11.8 4.9 10.4 91 0.7 W 37 50 20 27 1012.9 1012.9 11.0
28/10:54pm 12.0 5.5 10.2 89 0.9 WNW 35 50 19 27 1012.9 1012.9 10.6
28/10:30pm 12.6 6.6 10.0 84 1.3 W 32 41 17 22 1012.4 1012.4 9.8
28/10:00pm 12.8 7.1 9.8 82 1.5 W 30 39 16 21 1012.5 1012.5 9.8
28/09:56pm 12.8 7.1 9.8 82 1.5 W 30 39 16 21 1012.5 1012.5 9.8
28/09:39pm 13.0 8.0 10.9 87 1.1 W 28 33 15 18 1012.3 1012.3 9.8
28/09:30pm 12.9 7.9 11.0 88 1.0 WNW 28 35 15 19 1012.4 1012.4 9.8
28/09:02pm 12.8 8.5 11.9 94 0.5 W 26 33 14 18 1012.2 1012.2 9.8
28/09:00pm 12.8 8.5 11.9 94 0.5 W 26 33 14 18 1012.2 1012.2 9.8
28/08:58pm 12.8 8.5 12.0 95 0.4 W 26 35 14 19 1012.2 1012.2 9.8
28/08:48pm 12.9 8.3 12.3 96 0.3 WNW 28 41 15 22 1012.2 1012.2 9.8
28/08:30pm 13.1 8.9 12.5 96 0.3 WNW 26 35 14 19 1012.3 1012.3 7.4
28/08:11pm 12.5 9.5 11.9 96 0.3 NW 19 22 10 12 1012.3 1012.3 6.2
28/08:01pm 12.4 9.1 11.6 95 0.4 NW 20 28 11 15 1012.3 1012.3 6.0
28/08:00pm 12.4 9.1 11.6 95 0.4 NW 20 28 11 15 1012.3 1012.3 6.0
28/07:48pm 12.2 7.6 11.1 93 0.6 WNW 26 37 14 20 1012.3 1012.3 5.6
28/07:33pm 12.2 5.2 10.1 87 1.1 W 37 56 20 30 1012.3 1012.3 3.6
28/07:30pm 13.0 6.5 10.5 85 1.3 WNW 35 56 19 30 1012.4 1012.4 1.6
28/07:05pm 14.4 9.6 11.7 84 1.4 NNW 28 46 15 25 1011.3 1011.3 0.6
28/07:00pm 14.4 10.0 11.6 83 1.5 NW 26 35 14 19 1011.4 1011.4 0.6
28/06:47pm 15.3 10.4 11.3 77 2.1 NW 28 46 15 25 1011.1 1011.1 0.4
28/06:30pm 16.5 12.3 11.0 70 2.9 NNW 24 35 13 19 1010.8 1010.8 0.0
28/06:00pm 16.7 12.7 10.5 67 3.3 NNW 22 35 12 19 1010.9 1010.9 0.0
28/05:30pm 16.8 11.6 10.2 65 3.5 NNW 28 39 15 21 1011.0 1011.0 0.0
28/05:00pm 17.4 12.9 10.1 62 3.9 NNW 24 39 13 21 1010.8 1010.8 0.0
28/04:30pm 17.2 11.9 9.9 62 3.8 NNW 28 39 15 21 1010.9 1010.9 0.0
28/04:00pm 17.1 13.4 10.0 63 3.7 NNW 20 32 11 17 1011.2 1011.2 0.0
28/03:30pm 17.1 13.6 10.2 64 3.7 NNW 19 28 10 15 1011.6 1011.6 0.0
28/03:00pm 17.4 12.9 10.1 62 3.9 NW 24 35 13 19 1011.8 1011.8 0.0
28/02:30pm 17.9 12.6 10.0 60 4.2 NW 28 41 15 22 1012.0 1012.0 0.0
28/02:00pm 17.8 11.6 9.4 58 4.4 NW 32 43 17 23 1012.2 1012.2 0.0
28/01:30pm 18.5 12.2 9.6 56 4.7 NW 33 48 18 26 1012.6 1012.6 0.0
28/01:03pm 18.5 13.2 9.8 57 4.6 NNW 28 46 15 25 1012.8 1012.8 0.0
28/01:00pm 18.5 13.1 9.6 56 4.7 NNW 28 41 15 22 1012.8 1012.8 0.0
28/12:30pm 17.9 12.3 10.3 61 4.1 NNW 30 43 16 23 1013.2 1013.2 0.0
28/12:00pm 18.0 11.9 9.9 59 4.3 NNW 32 50 17 27 1013.8 1013.8 0.0
28/11:51am 18.2 13.0 10.3 60 4.2 NNW 28 50 15 27 1013.9 1013.9 0.0
28/11:30am 17.8 12.6 10.2 61 4.0 NNW 28 44 15 24 1014.3 1014.3 0.0
28/11:00am 17.5 12.6 10.1 62 3.9 NNW 26 35 14 19 1014.7 1014.7 0.0
28/10:30am 17.3 12.8 10.2 63 3.8 NNW 24 35 13 19 1015.1 1015.1 0.0
28/10:00am 17.2 12.7 9.9 62 3.8 NNW 24 35 13 19 1015.2 1015.2 0.0
28/09:30am 17.2 13.5 10.1 63 3.8 NNW 20 37 11 20 1015.4 1015.4 0.0
28/09:00am 16.7 12.7 10.3 66 3.4 NNW 22 30 12 16 1015.7 1015.7 0.0
28/08:30am 16.2 11.8 10.3 68 3.1 NNW 24 35 13 19 1015.8 1015.8 0.0
28/08:00am 15.8 11.6 9.9 68 3.1 NNW 22 32 12 17 1015.7 1015.7 0.0
28/07:30am 15.5 11.7 9.8 69 3.0 NNW 20 33 11 18 1015.6 1015.6 0.0
28/07:00am 15.7 11.6 10.0 69 3.0 NNW 22 30 12 16 1015.6 1015.6 0.0
28/06:30am 15.5 11.8 10.1 70 2.8 NNW 20 33 11 18 1015.5 1015.5 0.0
28/06:00am 15.6 11.4 9.9 69 3.0 NNW 22 33 12 18 1015.3 1015.3 0.0
28/05:30am 15.5 11.8 10.1 70 2.8 NNW 20 30 11 16 1015.3 1015.3 0.0
28/05:00am 15.4 11.6 9.7 69 3.0 NNW 20 32 11 17 1015.5 1015.5 0.0
28/04:30am 15.4 11.6 9.7 69 3.0 NNW 20 30 11 16 1015.6 1015.6 0.0
28/04:00am 15.9 11.3 9.8 67 3.2 NNW 24 35 13 19 1015.7 1015.7 0.0
28/03:30am 16.1 11.5 9.5 65 3.4 NNW 24 37 13 20 1015.9 1015.9 0.0
28/03:00am 15.9 11.3 9.6 66 3.3 NNW 24 35 13 19 1016.0 1016.0 0.0
28/02:30am 16.4 12.5 9.6 64 3.5 NNW 20 33 11 18 1016.2 1016.2 0.0
28/02:00am 16.5 12.2 9.4 63 3.7 NNW 22 35 12 19 1016.3 1016.3 0.0
28/01:30am 16.3 12.1 9.7 65 3.4 NNW 22 32 12 17 1016.4 1016.4 0.0
28/01:00am 16.0 12.2 9.9 67 3.2 NNW 20 32 11 17 1016.5 1016.5 0.0

Other Formats:

Comma delimited format used in spreadsheet applications
http://www.bom.gov.au/fwo/IDT60801/IDT60801.94980.axf

JavaScript Object Notation format (JSON) in row-major order
http://www.bom.gov.au/fwo/IDT60801/IDT60801.94980.json